Time;durP1;ratioP1;P1;durP2;ratioP2;P2;SDS_P1;SDS_P2;PMS_P1;PMS_P2;Temp;Humidity;BMP_temperature;BMP_pressure;BME280_temperature;BME280_humidity;BME280_pressure;Samples;Min_cycle;Max_cycle;Signal;HPM_P1;HPM_P2
2021/10/26 00:00:49;;;;;;;;;;;6.20;47.90;;;;;;4376129;32;20022;-42
2021/10/26 00:03:16;;;;;;;;;;;6.10;47.90;;;;;;4376057;32;19974;-42
2021/10/26 00:05:42;;;;;;;;;;;6.00;47.90;;;;;;4375821;32;19989;-42
2021/10/26 00:08:08;;;;;;;;;;;6.00;48.00;;;;;;4375981;32;19962;-40
2021/10/26 00:10:34;;;;;;;;;;;5.90;48.10;;;;;;4376052;32;19966;-40
2021/10/26 00:13:00;;;;;;;;;;;5.80;48.00;;;;;;4375528;32;19970;-40
2021/10/26 00:15:27;;;;;;;;;;;5.70;48.20;;;;;;4375708;32;19963;-39
2021/10/26 00:17:53;;;;;;;;;;;5.60;48.40;;;;;;4375660;32;19962;-36
2021/10/26 00:20:19;;;;;;;;;;;5.50;48.70;;;;;;4375780;32;19961;-38
2021/10/26 00:22:45;;;;;;;;;;;5.50;49.00;;;;;;4375248;32;20034;-39
2021/10/26 00:25:12;;;;;;;;;;;5.40;49.40;;;;;;4375118;32;19969;-37
2021/10/26 00:27:38;;;;;;;;;;;5.30;49.50;;;;;;4375631;32;20030;-39
2021/10/26 00:30:06;;;;;;;;;;;5.30;49.70;;;;;;4375621;32;19976;-39
2021/10/26 00:32:32;;;;;;;;;;;5.30;49.80;;;;;;4375256;32;19998;-39
2021/10/26 00:34:58;;;;;;;;;;;5.30;49.90;;;;;;4375302;32;19978;-39
2021/10/26 00:37:25;;;;;;;;;;;5.30;49.90;;;;;;4375147;32;20012;-39
2021/10/26 00:39:51;;;;;;;;;;;5.20;49.90;;;;;;4375306;32;19966;-38
2021/10/26 00:42:17;;;;;;;;;;;5.20;50.00;;;;;;4374567;32;19997;-40
2021/10/26 00:44:44;;;;;;;;;;;5.20;50.40;;;;;;4374935;32;20387;-39
2021/10/26 00:47:10;;;;;;;;;;;5.20;50.40;;;;;;4360735;32;19962;-39
2021/10/26 00:49:36;;;;;;;;;;;5.10;50.50;;;;;;4360342;32;19974;-39
2021/10/26 00:52:03;;;;;;;;;;;5.10;50.60;;;;;;4360114;32;20410;-39
2021/10/26 00:54:29;;;;;;;;;;;5.10;50.70;;;;;;4360251;32;19997;-40
2021/10/26 00:56:56;;;;;;;;;;;5.10;50.80;;;;;;4327940;33;19982;-38
2021/10/26 00:59:22;;;;;;;;;;;5.10;50.80;;;;;;4328389;33;19974;-39
2021/10/26 01:01:48;;;;;;;;;;;5.10;50.80;;;;;;4328202;33;19985;-40
2021/10/26 01:04:14;;;;;;;;;;;5.10;50.80;;;;;;4328419;33;19975;-39
2021/10/26 01:06:41;;;;;;;;;;;5.10;50.80;;;;;;4316060;33;20006;-39
2021/10/26 01:09:07;;;;;;;;;;;5.00;50.90;;;;;;4327801;33;20042;-39
2021/10/26 01:11:34;;;;;;;;;;;5.00;50.90;;;;;;4327955;33;20012;-39
2021/10/26 01:14:01;;;;;;;;;;;5.00;50.90;;;;;;4327944;33;20050;-39
2021/10/26 01:16:27;;;;;;;;;;;5.00;50.90;;;;;;4315868;33;20049;-38
2021/10/26 01:18:54;;;;;;;;;;;5.00;50.90;;;;;;4327774;33;20386;-39
2021/10/26 01:21:20;;;;;;;;;;;5.00;50.90;;;;;;4327540;33;19983;-39
2021/10/26 01:23:46;;;;;;;;;;;5.10;50.90;;;;;;4327609;33;20409;-39
2021/10/26 01:26:12;;;;;;;;;;;5.10;50.80;;;;;;4315523;33;20492;-38
2021/10/26 01:28:39;;;;;;;;;;;5.10;50.70;;;;;;4327848;33;19967;-38
2021/10/26 01:31:05;;;;;;;;;;;5.10;50.60;;;;;;4327576;33;19974;-39
2021/10/26 01:33:31;;;;;;;;;;;5.10;50.60;;;;;;4332099;32;19978;-39
2021/10/26 01:35:57;;;;;;;;;;;5.10;50.60;;;;;;4333666;32;20046;-37
2021/10/26 01:38:24;;;;;;;;;;;5.00;50.60;;;;;;4359605;32;19980;-38
2021/10/26 01:40:50;;;;;;;;;;;5.00;50.80;;;;;;4359234;32;19970;-38
2021/10/26 01:43:16;;;;;;;;;;;4.90;51.00;;;;;;4359707;32;19970;-39
2021/10/26 01:45:43;;;;;;;;;;;4.90;51.20;;;;;;4365258;32;20033;-38
2021/10/26 01:48:09;;;;;;;;;;;4.90;51.30;;;;;;4356606;32;19974;-39
2021/10/26 01:50:35;;;;;;;;;;;4.80;51.30;;;;;;4356714;32;19970;-37
2021/10/26 01:53:01;;;;;;;;;;;4.80;51.30;;;;;;4356569;32;20009;-39
2021/10/26 01:55:28;;;;;;;;;;;4.80;51.50;;;;;;4357322;32;20423;-38
2021/10/26 01:57:54;;;;;;;;;;;4.80;51.50;;;;;;4356972;32;20510;-39
2021/10/26 02:00:20;;;;;;;;;;;4.80;51.60;;;;;;4344334;32;20430;-39
2021/10/26 02:02:47;;;;;;;;;;;4.80;51.60;;;;;;4356782;32;19981;-39
2021/10/26 02:05:14;;;;;;;;;;;4.80;51.50;;;;;;4356190;32;19982;-39
2021/10/26 02:07:40;;;;;;;;;;;4.80;51.60;;;;;;4344105;32;20060;-38
2021/10/26 02:10:06;;;;;;;;;;;4.80;51.50;;;;;;4344115;32;19970;-39
2021/10/26 02:12:34;;;;;;;;;;;4.90;51.50;;;;;;4356173;32;19963;-37
2021/10/26 02:15:00;;;;;;;;;;;4.80;51.40;;;;;;4356433;32;20053;-39
2021/10/26 02:17:26;;;;;;;;;;;4.80;51.40;;;;;;4356733;32;19970;-39
2021/10/26 02:19:52;;;;;;;;;;;4.80;51.50;;;;;;4356518;32;20041;-39
2021/10/26 02:22:19;;;;;;;;;;;4.80;51.50;;;;;;4356476;32;20474;-38
2021/10/26 02:24:45;;;;;;;;;;;4.80;51.50;;;;;;4344195;32;20397;-39
2021/10/26 02:27:11;;;;;;;;;;;4.80;51.40;;;;;;4359046;32;20056;-39
2021/10/26 02:29:37;;;;;;;;;;;4.80;51.30;;;;;;4359238;32;20040;-38
2021/10/26 02:32:05;;;;;;;;;;;4.80;51.30;;;;;;4358889;32;20049;-37
2021/10/26 02:34:31;;;;;;;;;;;4.80;51.10;;;;;;4358780;32;20527;-39
2021/10/26 02:36:58;;;;;;;;;;;4.80;51.00;;;;;;4358812;32;19966;-40
2021/10/26 02:39:24;;;;;;;;;;;4.80;51.00;;;;;;4358548;32;20061;-40
2021/10/26 02:41:50;;;;;;;;;;;4.90;51.00;;;;;;4358769;32;19963;-40
2021/10/26 02:44:17;;;;;;;;;;;4.80;50.90;;;;;;4358801;32;19964;-40
2021/10/26 02:46:43;;;;;;;;;;;4.80;50.90;;;;;;4347334;32;20042;-40
2021/10/26 02:49:09;;;;;;;;;;;4.80;50.90;;;;;;4343655;32;20026;-39
2021/10/26 02:51:36;;;;;;;;;;;4.80;50.90;;;;;;4343622;32;20375;-38
2021/10/26 02:54:05;;;;;;;;;;;4.80;50.90;;;;;;4343755;32;19986;-38
2021/10/26 02:56:32;;;;;;;;;;;4.80;51.00;;;;;;4342245;33;19989;-37
2021/10/26 02:58:58;;;;;;;;;;;4.80;51.10;;;;;;4343812;32;20509;-40
2021/10/26 03:01:25;;;;;;;;;;;4.70;51.00;;;;;;4343591;33;19975;-39
2021/10/26 03:03:51;;;;;;;;;;;4.70;51.00;;;;;;4343885;32;19973;-40
2021/10/26 03:06:19;;;;;;;;;;;4.70;51.00;;;;;;4344766;32;20445;-39
2021/10/26 03:08:45;;;;;;;;;;;4.70;51.10;;;;;;4346751;32;20054;-39
2021/10/26 03:11:11;;;;;;;;;;;4.70;51.20;;;;;;4346962;32;20026;-39
2021/10/26 03:13:37;;;;;;;;;;;4.70;51.20;;;;;;4346596;32;19965;-37
2021/10/26 03:16:06;;;;;;;;;;;4.70;51.20;;;;;;4346730;32;19975;-37
2021/10/26 03:18:33;;;;;;;;;;;4.70;51.20;;;;;;4346592;32;19974;-39
2021/10/26 03:20:59;;;;;;;;;;;4.70;51.20;;;;;;4346912;32;19981;-39
2021/10/26 03:23:26;;;;;;;;;;;4.70;51.30;;;;;;4350392;32;20394;-40
2021/10/26 03:25:52;;;;;;;;;;;4.60;51.40;;;;;;4361417;32;19978;-39
2021/10/26 03:28:19;;;;;;;;;;;4.60;51.60;;;;;;4361732;32;20005;-39
2021/10/26 03:30:46;;;;;;;;;;;4.60;51.70;;;;;;4361508;32;19974;-39
2021/10/26 03:33:12;;;;;;;;;;;4.70;51.80;;;;;;4361124;32;20450;-39
2021/10/26 03:35:38;;;;;;;;;;;4.70;52.00;;;;;;4361371;32;19973;-39
2021/10/26 03:38:06;;;;;;;;;;;4.70;52.40;;;;;;4361541;32;19973;-37
2021/10/26 03:40:32;;;;;;;;;;;4.80;52.50;;;;;;4361547;32;19997;-40
2021/10/26 03:42:58;;;;;;;;;;;4.80;52.40;;;;;;4361199;32;19962;-40
2021/10/26 03:45:24;;;;;;;;;;;4.80;52.40;;;;;;4364781;32;19986;-40
2021/10/26 03:47:50;;;;;;;;;;;4.80;52.40;;;;;;4376023;32;20403;-39
2021/10/26 03:50:17;;;;;;;;;;;4.80;52.70;;;;;;4376093;32;19976;-40
2021/10/26 03:52:43;;;;;;;;;;;4.80;53.50;;;;;;4361680;32;20562;-39
2021/10/26 03:55:10;;;;;;;;;;;4.80;54.00;;;;;;4375500;32;19966;-39
2021/10/26 03:57:36;;;;;;;;;;;4.80;54.40;;;;;;4375492;32;19964;-40
2021/10/26 04:00:04;;;;;;;;;;;4.90;54.50;;;;;;4375997;32;20043;-39
2021/10/26 04:02:31;;;;;;;;;;;4.90;54.70;;;;;;4375784;32;19973;-39
2021/10/26 04:05:11;;;;;;;;;;;4.90;55.00;;;;;;4361972;32;19965;-39
2021/10/26 04:07:46;;;;;;;;;;;4.90;54.90;;;;;;4375555;32;20442;-38
2021/10/26 04:10:17;;;;;;;;;;;5.00;54.90;;;;;;4375747;32;19994;-40
2021/10/26 04:12:45;;;;;;;;;;;5.10;54.90;;;;;;4375458;32;19969;-39
2021/10/26 04:15:12;;;;;;;;;;;5.20;54.70;;;;;;4375515;32;19970;-38
2021/10/26 04:17:38;;;;;;;;;;;5.20;54.60;;;;;;4375192;32;19973;-38
2021/10/26 04:20:05;;;;;;;;;;;5.30;54.10;;;;;;4375726;32;19977;-38
2021/10/26 04:22:31;;;;;;;;;;;5.40;53.80;;;;;;4375108;32;19985;-40
2021/10/26 04:24:57;;;;;;;;;;;5.40;53.80;;;;;;4374863;32;20428;-40
2021/10/26 04:27:25;;;;;;;;;;;5.50;53.80;;;;;;4375346;32;19980;-41
2021/10/26 04:29:51;;;;;;;;;;;5.60;53.90;;;;;;4375219;32;19954;-41
2021/10/26 04:32:17;;;;;;;;;;;5.60;53.80;;;;;;4375105;32;20459;-41
2021/10/26 04:34:44;;;;;;;;;;;5.70;53.80;;;;;;4375387;32;20101;-39
2021/10/26 04:37:10;;;;;;;;;;;5.70;53.70;;;;;;4374757;32;19982;-40
2021/10/26 04:39:36;;;;;;;;;;;5.80;53.60;;;;;;4375657;32;19985;-41
2021/10/26 04:42:04;;;;;;;;;;;5.90;53.60;;;;;;4361468;32;19964;-41
2021/10/26 04:44:30;;;;;;;;;;;6.00;53.20;;;;;;4375312;32;20078;-41
2021/10/26 04:46:56;;;;;;;;;;;6.10;52.20;;;;;;4361732;32;19978;-40
2021/10/26 04:49:22;;;;;;;;;;;6.20;51.70;;;;;;4359901;32;19990;-40
2021/10/26 04:51:48;;;;;;;;;;;6.30;51.40;;;;;;4360038;32;19990;-40
2021/10/26 04:54:15;;;;;;;;;;;6.50;51.40;;;;;;4359992;32;19970;-40
2021/10/26 04:56:41;;;;;;;;;;;6.70;50.80;;;;;;4360047;32;19977;-40
2021/10/26 04:59:07;;;;;;;;;;;6.90;50.00;;;;;;4346599;32;19972;-40
2021/10/26 05:01:33;;;;;;;;;;;7.20;49.90;;;;;;4360029;32;19966;-39
2021/10/26 05:03:59;;;;;;;;;;;7.40;49.50;;;;;;4359587;32;20496;-40
2021/10/26 05:06:26;;;;;;;;;;;7.70;48.90;;;;;;4360152;32;19966;-41
2021/10/26 05:08:55;;;;;;;;;;;7.90;48.50;;;;;;4359535;32;20366;-39
2021/10/26 05:11:21;;;;;;;;;;;8.10;48.20;;;;;;4359838;32;20426;-40
2021/10/26 05:13:47;;;;;;;;;;;8.20;46.40;;;;;;4359868;32;19981;-40
2021/10/26 05:16:14;;;;;;;;;;;8.30;46.10;;;;;;4345732;32;20075;-39
2021/10/26 05:18:43;;;;;;;;;;;8.30;46.30;;;;;;4360186;32;20395;-44
2021/10/26 05:21:19;;;;;;;;;;;8.50;46.90;;;;;;4359686;32;20031;-39
2021/10/26 05:23:47;;;;;;;;;;;8.70;47.20;;;;;;4359691;32;19971;-39
2021/10/26 05:26:13;;;;;;;;;;;9.10;46.70;;;;;;4359644;32;19966;-40
2021/10/26 05:28:40;;;;;;;;;;;9.30;45.40;;;;;;4359623;32;19984;-41
2021/10/26 05:31:07;;;;;;;;;;;9.40;43.90;;;;;;4359347;32;20049;-40
2021/10/26 05:33:34;;;;;;;;;;;9.40;43.40;;;;;;4345716;32;19978;-40
2021/10/26 05:36:01;;;;;;;;;;;9.50;43.90;;;;;;4359558;32;20013;-41
2021/10/26 05:38:27;;;;;;;;;;;9.60;44.00;;;;;;4359366;32;20039;-41
2021/10/26 05:40:53;;;;;;;;;;;10.00;44.10;;;;;;4345416;32;19975;-40
2021/10/26 05:43:19;;;;;;;;;;;10.20;43.10;;;;;;4359371;32;19989;-40
2021/10/26 05:45:46;;;;;;;;;;;10.40;41.40;;;;;;4365063;32;20042;-40
2021/10/26 05:48:13;;;;;;;;;;;10.50;41.50;;;;;;4360078;32;19962;-39
2021/10/26 05:50:39;;;;;;;;;;;10.60;42.00;;;;;;4374140;32;20470;-40
2021/10/26 05:53:06;;;;;;;;;;;10.80;41.60;;;;;;4374396;32;19967;-41
2021/10/26 05:55:32;;;;;;;;;;;11.00;40.50;;;;;;4373964;32;19997;-40
2021/10/26 05:57:58;;;;;;;;;;;11.10;40.30;;;;;;4373703;32;19962;-39
2021/10/26 06:00:25;;;;;;;;;;;11.10;39.90;;;;;;4373905;32;20398;-41
2021/10/26 06:02:52;;;;;;;;;;;11.10;39.60;;;;;;4359950;32;19969;-41
2021/10/26 06:05:18;;;;;;;;;;;11.00;39.60;;;;;;4374245;32;19974;-40
2021/10/26 06:07:45;;;;;;;;;;;10.90;39.50;;;;;;4373825;32;19966;-39
2021/10/26 06:10:11;;;;;;;;;;;10.80;39.40;;;;;;4374013;32;20008;-41
2021/10/26 06:12:42;;;;;;;;;;;10.70;39.10;;;;;;4373539;32;19995;-41
2021/10/26 06:15:09;;;;;;;;;;;10.70;39.90;;;;;;4373625;32;20074;-41
2021/10/26 06:17:35;;;;;;;;;;;10.70;39.20;;;;;;4373920;32;19994;-42
2021/10/26 06:20:01;;;;;;;;;;;10.70;39.10;;;;;;4360037;32;19977;-40
2021/10/26 06:22:28;;;;;;;;;;;10.70;38.90;;;;;;4373904;32;20032;-41
2021/10/26 06:24:54;;;;;;;;;;;10.70;38.80;;;;;;4355790;32;19966;-41
2021/10/26 06:27:20;;;;;;;;;;;10.70;38.60;;;;;;4355949;32;20524;-41
2021/10/26 06:29:46;;;;;;;;;;;10.80;38.80;;;;;;4356135;32;20057;-39
2021/10/26 06:32:12;;;;;;;;;;;10.80;38.40;;;;;;4356354;32;20427;-42
2021/10/26 06:34:38;;;;;;;;;;;10.70;38.40;;;;;;4356388;32;20044;-41
2021/10/26 06:37:05;;;;;;;;;;;10.70;38.80;;;;;;4355723;32;19994;-40
2021/10/26 06:39:31;;;;;;;;;;;10.60;38.50;;;;;;4343592;32;20033;-41
2021/10/26 06:41:57;;;;;;;;;;;10.40;38.70;;;;;;4355366;32;20050;-41
2021/10/26 06:44:24;;;;;;;;;;;10.30;39.00;;;;;;4356172;32;19981;-40
2021/10/26 06:46:50;;;;;;;;;;;10.20;39.20;;;;;;4343365;32;19974;-39
2021/10/26 06:49:16;;;;;;;;;;;10.20;39.40;;;;;;4341242;33;20414;-40
2021/10/26 06:51:42;;;;;;;;;;;10.10;39.40;;;;;;4341502;33;20061;-41
2021/10/26 06:54:09;;;;;;;;;;;10.10;38.70;;;;;;4341231;33;19978;-40
2021/10/26 06:56:35;;;;;;;;;;;9.90;38.40;;;;;;4341157;33;20495;-41
2021/10/26 06:59:02;;;;;;;;;;;9.80;38.90;;;;;;4340840;33;20123;-40
2021/10/26 07:01:28;;;;;;;;;;;9.70;39.40;;;;;;4343671;32;20067;-42
2021/10/26 07:03:54;;;;;;;;;;;9.60;39.80;;;;;;4358105;32;19971;-41
2021/10/26 07:06:21;;;;;;;;;;;9.70;40.10;;;;;;4358586;32;20430;-40
2021/10/26 07:08:47;;;;;;;;;;;9.70;40.00;;;;;;4358583;32;20397;-40
2021/10/26 07:11:13;;;;;;;;;;;9.70;39.90;;;;;;4358370;32;19978;-41
2021/10/26 07:13:39;;;;;;;;;;;9.70;39.60;;;;;;4358094;32;20439;-41
2021/10/26 07:16:06;;;;;;;;;;;9.60;39.60;;;;;;4344137;32;19974;-41
2021/10/26 07:18:33;;;;;;;;;;;9.60;39.90;;;;;;4358230;32;19966;-42
2021/10/26 07:20:59;;;;;;;;;;;9.60;39.80;;;;;;4358105;32;19970;-42
2021/10/26 07:23:25;;;;;;;;;;;9.60;40.00;;;;;;4357823;32;19978;-41
2021/10/26 07:25:53;;;;;;;;;;;9.70;40.00;;;;;;4358177;32;19973;-41
2021/10/26 07:28:22;;;;;;;;;;;9.80;40.10;;;;;;4358360;32;20402;-40
2021/10/26 07:30:48;;;;;;;;;;;9.80;39.50;;;;;;4325688;33;19967;-40
2021/10/26 07:33:20;;;;;;;;;;;9.60;39.10;;;;;;4326345;33;20074;-42
2021/10/26 07:35:49;;;;;;;;;;;9.60;39.00;;;;;;4326623;33;19989;-41
2021/10/26 07:38:27;;;;;;;;;;;9.50;39.20;;;;;;4325784;33;19975;-41
2021/10/26 07:40:56;;;;;;;;;;;9.40;39.50;;;;;;4315126;33;20105;-39
2021/10/26 07:43:23;;;;;;;;;;;9.40;39.80;;;;;;4326041;33;20419;-41
2021/10/26 07:45:49;;;;;;;;;;;9.50;39.40;;;;;;4325865;33;20404;-39
2021/10/26 07:48:15;;;;;;;;;;;9.50;39.20;;;;;;4326122;33;20002;-41
2021/10/26 07:50:43;;;;;;;;;;;9.60;39.60;;;;;;4326468;33;19981;-41
2021/10/26 07:53:09;;;;;;;;;;;9.70;39.90;;;;;;4328141;33;20002;-42
2021/10/26 07:55:36;;;;;;;;;;;9.80;39.50;;;;;;4328883;33;19980;-41
2021/10/26 07:58:02;;;;;;;;;;;10.00;39.30;;;;;;4328362;33;19973;-40
2021/10/26 08:00:29;;;;;;;;;;;10.20;39.20;;;;;;4328768;33;20415;-42
2021/10/26 08:02:55;;;;;;;;;;;10.40;38.40;;;;;;4328657;33;20025;-40
2021/10/26 08:05:21;;;;;;;;;;;10.60;38.10;;;;;;4328839;33;19998;-41
2021/10/26 08:07:48;;;;;;;;;;;10.80;37.30;;;;;;4338341;32;20467;-42
2021/10/26 08:10:14;;;;;;;;;;;10.90;37.20;;;;;;4360335;32;19974;-41
2021/10/26 08:12:41;;;;;;;;;;;11.10;36.50;;;;;;4360608;32;19966;-42
2021/10/26 08:15:07;;;;;;;;;;;11.10;36.40;;;;;;4346827;32;19969;-42
2021/10/26 08:17:34;;;;;;;;;;;11.10;36.00;;;;;;4360135;32;19971;-42
2021/10/26 08:20:00;;;;;;;;;;;11.20;35.90;;;;;;4360548;32;20409;-40
2021/10/26 08:22:27;;;;;;;;;;;11.20;36.10;;;;;;4360131;32;19985;-42
2021/10/26 08:24:58;;;;;;;;;;;11.30;35.50;;;;;;4360353;32;19973;-42
2021/10/26 08:27:25;;;;;;;;;;;11.30;35.00;;;;;;4360639;32;20001;-43
2021/10/26 08:29:58;;;;;;;;;;;11.20;35.10;;;;;;4360426;32;19970;-41
2021/10/26 08:37:30;;;;;;;;;;;11.00;35.50;;;;;;4360003;32;20360;-41
2021/10/26 08:39:56;;;;;;;;;;;11.00;35.50;;;;;;4360246;32;19969;-40
2021/10/26 08:42:22;;;;;;;;;;;10.90;35.60;;;;;;4360069;32;20051;-40
2021/10/26 08:44:49;;;;;;;;;;;11.00;35.80;;;;;;4359806;32;19992;-41
2021/10/26 08:47:16;;;;;;;;;;;11.00;35.80;;;;;;4374839;32;19981;-41
2021/10/26 08:49:51;;;;;;;;;;;10.90;35.50;;;;;;4360889;32;20024;-41
2021/10/26 08:52:19;;;;;;;;;;;10.90;35.80;;;;;;4374822;32;19981;-41
2021/10/26 08:54:46;;;;;;;;;;;10.90;35.90;;;;;;4374485;32;19954;-40
2021/10/26 08:57:13;;;;;;;;;;;10.80;35.60;;;;;;4374998;32;19997;-41
2021/10/26 08:59:40;;;;;;;;;;;10.70;35.70;;;;;;4374840;32;20390;-40
2021/10/26 09:02:07;;;;;;;;;;;10.70;35.90;;;;;;4374656;32;19973;-42
2021/10/26 09:04:34;;;;;;;;;;;10.60;36.10;;;;;;4373767;32;19978;-41
2021/10/26 09:07:06;;;;;;;;;;;10.60;36.20;;;;;;4374592;32;19965;-40
2021/10/26 09:09:34;;;;;;;;;;;10.60;35.80;;;;;;4374429;32;19985;-42
2021/10/26 09:17:59;;;;;;;;;;;10.50;35.80;;;;;;4374269;32;19981;-41
2021/10/26 09:20:28;;;;;;;;;;;10.50;36.20;;;;;;4360654;32;20001;-43
2021/10/26 09:22:55;;;;;;;;;;;10.50;36.00;;;;;;4374281;32;20348;-38
2021/10/26 09:25:39;;;;;;;;;;;10.40;35.60;;;;;;4374854;32;19962;-42
2021/10/26 09:28:14;;;;;;;;;;;10.30;35.70;;;;;;4373846;32;19997;-41
2021/10/26 09:30:41;;;;;;;;;;;10.30;36.20;;;;;;4374161;32;20119;-41
2021/10/26 09:33:08;;;;;;;;;;;10.20;36.60;;;;;;4374019;32;19974;-42
2021/10/26 09:35:35;;;;;;;;;;;10.20;36.90;;;;;;4374266;32;20427;-44
2021/10/26 09:38:02;;;;;;;;;;;10.20;36.80;;;;;;4374327;32;19969;-42
2021/10/26 09:40:43;;;;;;;;;;;10.20;37.70;;;;;;4374230;32;20386;-41
2021/10/26 09:43:11;;;;;;;;;;;10.20;37.00;;;;;;4359984;32;20079;-41
2021/10/26 09:45:38;;;;;;;;;;;10.20;37.30;;;;;;4368903;32;19977;-42
2021/10/26 09:48:12;;;;;;;;;;;10.30;37.50;;;;;;4359037;32;20034;-41
2021/10/26 09:50:38;;;;;;;;;;;10.30;37.30;;;;;;4359137;32;20378;-42
2021/10/26 09:53:12;;;;;;;;;;;10.30;37.10;;;;;;4359109;32;19978;-42
2021/10/26 09:55:47;;;;;;;;;;;10.20;37.00;;;;;;4359581;32;19982;-42
2021/10/26 09:58:14;;;;;;;;;;;10.20;37.50;;;;;;4326384;33;20500;-42
2021/10/26 10:00:45;;;;;;;;;;;10.20;37.60;;;;;;4326912;33;20451;-43
2021/10/26 10:03:27;;;;;;;;;;;10.20;37.50;;;;;;4326656;33;20053;-42
2021/10/26 10:05:54;;;;;;;;;;;10.20;37.70;;;;;;4326178;33;19975;-41
2021/10/26 10:08:36;;;;;;;;;;;10.20;37.60;;;;;;4314065;33;19990;-41
2021/10/26 10:11:05;;;;;;;;;;;10.20;37.50;;;;;;4314162;33;20443;-42
2021/10/26 10:13:31;;;;;;;;;;;10.20;37.30;;;;;;4326028;33;19971;-42
2021/10/26 10:15:58;;;;;;;;;;;10.30;37.50;;;;;;4314601;33;19963;-42
2021/10/26 10:18:24;;;;;;;;;;;10.30;37.90;;;;;;4314793;33;19986;-42
2021/10/26 10:20:54;;;;;;;;;;;10.30;37.50;;;;;;4314489;33;19977;-42
2021/10/26 10:23:21;;;;;;;;;;;10.30;37.00;;;;;;4326223;33;20090;-42
2021/10/26 10:25:47;;;;;;;;;;;10.20;36.70;;;;;;4326618;33;20089;-42
2021/10/26 10:28:28;;;;;;;;;;;10.20;37.40;;;;;;4329460;32;19963;-42
2021/10/26 10:30:57;;;;;;;;;;;10.20;38.10;;;;;;4358995;32;20005;-40
2021/10/26 10:33:24;;;;;;;;;;;10.30;38.40;;;;;;4345546;32;19987;-41
2021/10/26 10:35:52;;;;;;;;;;;10.40;38.00;;;;;;4344413;32;19986;-40
2021/10/26 10:38:19;;;;;;;;;;;10.50;37.30;;;;;;4358511;32;19998;-42
2021/10/26 10:40:46;;;;;;;;;;;10.50;37.10;;;;;;4344508;32;20405;-43
2021/10/26 10:43:12;;;;;;;;;;;10.50;37.40;;;;;;4344633;32;19967;-42
2021/10/26 10:45:44;;;;;;;;;;;10.70;37.70;;;;;;4363610;32;19954;-43
2021/10/26 10:48:27;;;;;;;;;;;10.80;37.70;;;;;;4373573;32;19962;-42
2021/10/26 10:51:10;;;;;;;;;;;10.90;37.60;;;;;;4373750;32;20390;-41
2021/10/26 10:53:36;;;;;;;;;;;11.00;37.70;;;;;;4373230;32;20385;-42
2021/10/26 10:56:20;;;;;;;;;;;11.10;37.30;;;;;;4373223;32;20411;-42
2021/10/26 10:58:49;;;;;;;;;;;11.00;37.40;;;;;;4359527;32;19962;-42
2021/10/26 11:01:29;;;;;;;;;;;11.10;37.30;;;;;;4373101;32;20430;-42
2021/10/26 11:03:56;;;;;;;;;;;11.10;37.10;;;;;;4373560;32;19970;-43
2021/10/26 11:06:47;;;;;;;;;;;11.10;37.40;;;;;;4372949;32;20045;-43
2021/10/26 11:09:40;;;;;;;;;;;11.10;37.60;;;;;;4372825;32;19958;-43
2021/10/26 11:12:10;;;;;;;;;;;11.10;37.40;;;;;;4370488;32;19981;-42
2021/10/26 11:15:06;;;;;;;;;;;11.10;37.30;;;;;;4373399;32;20051;-44
2021/10/26 11:17:32;;;;;;;;;;;11.10;37.20;;;;;;4360725;32;19978;-43
2021/10/26 11:20:18;;;;;;;;;;;11.20;37.60;;;;;;4372918;32;20382;-42
2021/10/26 11:23:02;;;;;;;;;;;11.20;37.70;;;;;;4373039;32;20009;-43
2021/10/26 11:25:32;;;;;;;;;;;11.30;37.50;;;;;;4373468;32;20037;-42
2021/10/26 11:28:27;;;;;;;;;;;11.30;37.60;;;;;;4375868;32;20013;-42
2021/10/26 11:30:55;;;;;;;;;;;11.40;37.80;;;;;;4368966;32;19966;-42
2021/10/26 11:33:24;;;;;;;;;;;11.50;36.80;;;;;;4376031;32;19997;-42
2021/10/26 11:35:51;;;;;;;;;;;11.70;36.30;;;;;;4376004;32;19962;-43
2021/10/26 11:38:28;;;;;;;;;;;11.80;35.50;;;;;;4375772;32;20493;-43
2021/10/26 11:41:07;;;;;;;;;;;11.90;35.10;;;;;;4375942;32;20043;-41
2021/10/26 11:43:46;;;;;;;;;;;11.90;35.10;;;;;;4375715;32;20470;-41
2021/10/26 11:46:14;;;;;;;;;;;12.00;36.00;;;;;;4366747;32;20469;-43
2021/10/26 11:48:54;;;;;;;;;;;12.20;36.30;;;;;;4360574;32;19955;-43
2021/10/26 11:51:35;;;;;;;;;;;12.40;36.20;;;;;;4360831;32;19963;-41
2021/10/26 11:54:16;;;;;;;;;;;12.50;35.30;;;;;;4360929;32;20046;-43
2021/10/26 11:56:47;;;;;;;;;;;12.60;34.70;;;;;;4361175;32;19962;-42
2021/10/26 11:59:15;;;;;;;;;;;12.70;34.60;;;;;;4360890;32;19986;-41
2021/10/26 12:02:04;;;;;;;;;;;12.90;34.20;;;;;;4347113;32;19967;-41
2021/10/26 12:04:40;;;;;;;;;;;13.00;33.60;;;;;;4360895;32;20050;-42
2021/10/26 12:07:11;;;;;;;;;;;12.90;33.20;;;;;;4360588;32;19974;-42
2021/10/26 12:09:41;;;;;;;;;;;12.80;32.30;;;;;;4360599;32;19959;-41
2021/10/26 12:12:31;;;;;;;;;;;12.80;32.20;;;;;;4360670;32;19974;-41
2021/10/26 12:15:02;;;;;;;;;;;12.60;32.20;;;;;;4337703;32;19974;-41
2021/10/26 12:17:31;;;;;;;;;;;12.60;33.20;;;;;;4346848;32;20402;-41
2021/10/26 12:20:06;;;;;;;;;;;12.50;33.40;;;;;;4360422;32;20451;-40
2021/10/26 12:22:34;;;;;;;;;;;12.50;33.50;;;;;;4360043;32;19994;-41
2021/10/26 12:25:22;;;;;;;;;;;12.30;33.60;;;;;;4359929;32;20480;-41
2021/10/26 12:28:02;;;;;;;;;;;12.30;34.10;;;;;;4360270;32;19965;-41
2021/10/26 12:30:29;;;;;;;;;;;12.30;34.30;;;;;;4360072;32;20398;-41
2021/10/26 12:32:59;;;;;;;;;;;12.30;34.10;;;;;;4360536;32;19965;-42
2021/10/26 12:35:28;;;;;;;;;;;12.40;34.40;;;;;;4360368;32;19969;-40
2021/10/26 12:38:25;;;;;;;;;;;12.40;34.60;;;;;;4360343;32;19973;-42
2021/10/26 12:40:52;;;;;;;;;;;12.50;34.90;;;;;;4360324;32;19978;-41
2021/10/26 12:43:23;;;;;;;;;;;12.40;34.70;;;;;;4359746;32;20019;-41
2021/10/26 12:45:53;;;;;;;;;;;12.40;34.90;;;;;;4366118;32;19997;-40
2021/10/26 12:48:23;;;;;;;;;;;12.30;35.10;;;;;;4375040;32;20476;-40
2021/10/26 12:50:55;;;;;;;;;;;12.20;35.40;;;;;;4375075;32;19954;-41
2021/10/26 12:53:28;;;;;;;;;;;12.10;35.70;;;;;;4374809;32;20422;-40
2021/10/26 12:55:55;;;;;;;;;;;12.00;35.90;;;;;;4374916;32;19969;-41
2021/10/26 12:58:41;;;;;;;;;;;11.90;36.10;;;;;;4374538;32;20056;-40
2021/10/26 13:01:28;;;;;;;;;;;11.80;36.60;;;;;;4374733;32;20370;-40
2021/10/26 13:03:57;;;;;;;;;;;11.70;37.00;;;;;;4374757;32;20001;-41
2021/10/26 13:06:28;;;;;;;;;;;11.60;37.30;;;;;;4341987;33;19978;-41
2021/10/26 13:08:56;;;;;;;;;;;11.50;37.50;;;;;;4342262;33;20046;-40
2021/10/26 13:11:26;;;;;;;;;;;11.40;37.80;;;;;;4342128;33;20446;-41
2021/10/26 13:14:13;;;;;;;;;;;11.30;37.90;;;;;;4342442;33;19977;-41
2021/10/26 13:16:40;;;;;;;;;;;11.20;38.20;;;;;;4342109;33;19970;-41
2021/10/26 13:19:13;;;;;;;;;;;11.00;38.50;;;;;;4342029;33;20014;-39
2021/10/26 13:21:40;;;;;;;;;;;10.80;38.80;;;;;;4342163;33;19988;-41
2021/10/26 13:24:07;;;;;;;;;;;10.70;39.20;;;;;;4330086;33;19993;-42
2021/10/26 13:26:34;;;;;;;;;;;10.50;39.60;;;;;;4342120;33;19982;-42
2021/10/26 13:29:03;;;;;;;;;;;10.40;40.10;;;;;;4341785;33;20047;-41
2021/10/26 13:31:29;;;;;;;;;;;10.30;40.30;;;;;;4341279;33;19978;-41
2021/10/26 13:33:55;;;;;;;;;;;10.20;40.20;;;;;;4341854;33;20506;-41
2021/10/26 13:36:25;;;;;;;;;;;10.10;40.40;;;;;;4341904;33;19978;-42
2021/10/26 13:38:51;;;;;;;;;;;10.00;41.00;;;;;;4341592;33;19974;-41
2021/10/26 13:41:18;;;;;;;;;;;9.90;41.30;;;;;;4341627;33;19978;-41
2021/10/26 13:43:47;;;;;;;;;;;9.80;41.50;;;;;;4349414;32;20062;-41
2021/10/26 13:46:17;;;;;;;;;;;9.70;41.70;;;;;;4350073;32;20006;-42
2021/10/26 13:48:43;;;;;;;;;;;9.60;42.10;;;;;;4343920;32;19978;-42
2021/10/26 13:51:10;;;;;;;;;;;9.60;42.20;;;;;;4343523;32;19982;-42
2021/10/26 13:53:36;;;;;;;;;;;9.50;42.50;;;;;;4344255;32;19969;-43
2021/10/26 13:56:03;;;;;;;;;;;9.50;42.60;;;;;;4342395;33;20407;-41
2021/10/26 13:58:29;;;;;;;;;;;9.40;42.70;;;;;;4343654;32;20597;-42
2021/10/26 14:00:59;;;;;;;;;;;9.40;43.40;;;;;;4343858;32;19963;-41
2021/10/26 14:03:25;;;;;;;;;;;9.30;42.70;;;;;;4343735;32;19974;-43
2021/10/26 14:05:51;;;;;;;;;;;9.30;42.90;;;;;;4343649;32;20041;-42
2021/10/26 14:08:17;;;;;;;;;;;9.30;43.20;;;;;;4343443;32;19962;-42
2021/10/26 14:10:45;;;;;;;;;;;9.20;43.20;;;;;;4343510;32;19973;-42
2021/10/26 14:13:11;;;;;;;;;;;9.20;43.30;;;;;;4343508;32;20390;-42
2021/10/26 14:15:37;;;;;;;;;;;9.20;43.40;;;;;;4342753;33;19993;-43
2021/10/26 14:18:04;;;;;;;;;;;9.20;43.20;;;;;;4344120;32;19974;-42
2021/10/26 14:20:41;;;;;;;;;;;9.20;43.00;;;;;;4343619;32;20335;-43
2021/10/26 14:23:07;;;;;;;;;;;9.10;42.90;;;;;;4345923;32;20060;-46
2021/10/26 14:25:35;;;;;;;;;;;9.10;43.30;;;;;;4344914;32;19955;-43
2021/10/26 14:28:01;;;;;;;;;;;9.10;43.50;;;;;;4358237;32;20563;-43
2021/10/26 14:30:28;;;;;;;;;;;9.10;43.70;;;;;;4358312;32;19958;-44
2021/10/26 14:32:55;;;;;;;;;;;9.10;43.80;;;;;;4358223;32;19963;-44
2021/10/26 14:35:30;;;;;;;;;;;9.10;44.00;;;;;;4357918;32;19978;-42
2021/10/26 14:38:13;;;;;;;;;;;9.10;44.20;;;;;;4358658;32;20056;-43
2021/10/26 14:56:52;;;;;;;;;;;9.20;43.90;;;;;;4372718;32;20073;-42
2021/10/26 14:59:18;;;;;;;;;;;9.20;43.90;;;;;;4373077;32;19961;-44